Tiempo atmosférico en la estación meteorológica de Almonte, Huelva (5 m.)



Fecha
DESCASC
Temp. máxima en grados centígrados (hora)
DESCASC
Temp. mínima en grados centígrados (hora)
DESCASC
Temp. media en grados centígrados
DESCASC
Racha de viento máxima en m/sg (hora)
DESCASC
Velocidad máxima media en intervalos de 10 minutos(hora)
DESCASC
Precipitaciones diarias en mm
DESCASC
Precipitaciones de 00:00 a 06:00 en mm
DESCASC
Precipitaciones de 06:00 a 12:00 en mm
DESCASC
Precipitaciones de 12:00 a 18:00 en mm
DESCASC
Precipitaciones de 18:00 a 24:00 en mm
DESCASC
18-02-2018 18.3 (16:50) 5.4 (02:40) 11.8 5 (17:40) 3.61 (17:40) 0.2 0 0.2 0 0
17-02-2018 17.4 (15:30) 2.5 (07:30) 9.9 7.22 (16:20) 5 (15:20) 0 0 0 0 0
16-02-2018 21.7 (15:50) 5.6 (04:40) 13.7 7.22 (17:10) 5.56 (17:30) 0 0 0 0 0
15-02-2018 20.8 (17:10) 2.2 (00:00) 11.5 7.78 (13:30) 5 (13:00) 0 0 0 0 0
14-02-2018 16.2 (15:00) 0.4 (00:00) 8.3 6.39 (15:10) 4.72 (15:10) 0 0 0 0 0
13-02-2018 15.4 (14:10) 0.3 (00:00) 7.8 8.33 (16:10) 6.11 (15:00) 0 0 0 0 0
12-02-2018 18.4 (16:20) 7.2 (00:00) 12.8 10.56 (12:40) 7.78 (15:50) 0 0 0 0 0
11-02-2018 16.3 (15:10) 0.8 (00:00) 8.5 6.94 (16:50) 5.28 (18:00) 0 0 0 0 0
10-02-2018 15.5 (17:00) 2.6 (00:00) 9 6.39 (15:40) 5 (15:50) 0 0 0 0 0
09-02-2018 12.9 (12:30) -2.2 (-00:0) 5.3 6.67 (15:50) 5 (15:50) 0 0 0 0 0
08-02-2018 14 (16:20) -0.3 (00:00) 6.8 10.28 (12:20) 6.94 (12:10) 0 0 0 0 0
07-02-2018 13.2 (15:40) -2.1 (-00:0) 5.5 11.11 (14:10) 6.94 (17:30) 0 0 0 0 0
06-02-2018 15.1 (17:30) 2.1 (00:00) 8.6 10 (12:00) 3.89 (18:20) 0 0 0 0 0
05-02-2018 13.8 (17:20) 0 (00:00) 6.9 11.39 (15:50) 7.5 (15:50) 0 0 0 0 0
04-02-2018 11.8 (14:00) 4.3 (00:00) 8.1 7.78 (03:00) 4.72 (03:00) 2.4 0 0.4 2 0
03-02-2018 15.1 (14:30) -3 (-00:0) 6.1 7.78 (17:30) 5.56 (17:30) 0 0 0 0 0
02-02-2018 15.2 (15:40) 3.8 (00:00) 9.5 10.28 (00:30) 5 (00:30) 0 0 0 0 0
01-02-2018 16.1 (16:10) 4.9 (00:00) 10.5 10.28 (15:50) 7.22 (15:50) 0 0 0 0 0
31-01-2018 18 (16:10) 9.2 (00:00) 13.6 9.72 (03:20) 6.39 (02:40) 0.2 0.2 0 0 0
30-01-2018 17.4 (15:10) 8.3 (00:00) 12.8 10.28 (12:00) 7.22 (12:00) 0.2 0.2 0 0 0
29-01-2018 16.7 (16:10) 8.3 (00:00) 12.5 14.17 (10:30) 9.72 (10:20) 0 0 0 0 0
28-01-2018 15.2 (16:30) 1.9 (00:00) 8.5 13.61 (13:40) 8.61 (13:10) 0 0 0 0 0
27-01-2018 15.1 (16:30) 0.5 (00:00) 7.8 10.83 (17:20) 7.5 (17:20) 0 0 0 0 0
26-01-2018 15.3 (16:20) 2.9 (00:00) 9.1 7.22 (16:30) 3.61 (16:30) 0 0 0 0 0
25-01-2018 14.6 (13:50) 7.9 (00:00) 11.3 7.5 (17:50) 5 (13:00) 4.4 0 0 4 0.4
24-01-2018 17.6 (14:40) 2.8 (00:00) 10.2 5 (15:10) 3.61 (15:10) 0.2 0 0.2 0 0
23-01-2018 18.2 (14:50) 4.4 (00:00) 11.3 5 (17:20) 3.89 (16:40) 0.2 0 0.2 0 0
22-01-2018 18.5 (15:00) 2.8 (00:00) 10.6 6.67 (16:00) 4.72 (15:40) 0 0 0 0 0

Gráficas

Temp. máximas Temp. mínimas Temp. medias Precipitaciones Rachas de viento máximas Velocidades máximas media en intervalos de 10 minutos

Datos horarios

Fecha y hora oficial Temperatura (ºC) Velocidad del viento (km/h) Dirección del viento Racha (km/h) Dirección de racha Precipitación (mm) Presión (hPa) Tendencia (hPa) Humedad (%)
2018-02-20 23:00:00 10.7 6 Noroeste 13 Noroeste 0 -- -- 81
2018-02-20 22:00:00 12.4 9 Noroeste 19 Oeste 0 -- -- 74
2018-02-20 21:00:00 12.7 9 Oeste 15 Oeste 0 -- -- 65
2018-02-20 20:00:00 13.3 7 Oeste 11 Oeste 0 -- -- 67
2018-02-20 19:00:00 18.6 5 Sudoeste 17 Este 0 -- -- 50
2018-02-20 18:00:00 20.8 9 Este 26 Nordeste 0 -- -- 40
2018-02-20 17:00:00 21.3 12 Nordeste 30 Nordeste 0 -- -- 40
2018-02-20 16:00:00 21.1 14 Nordeste 30 Nordeste 0 -- -- 40
2018-02-20 15:00:00 20.4 17 Nordeste 30 Nordeste 0 -- -- 42
2018-02-20 14:00:00 19.5 18 Nordeste 27 Nordeste 0 -- -- 47
2018-02-20 13:00:00 18.1 17 Nordeste 34 Nordeste 0 -- -- 51
2018-02-20 12:00:00 15.8 19 Nordeste 28 Nordeste 0 -- -- 54
2018-02-20 11:00:00 13.3 14 Nordeste 22 Nordeste 0 -- -- 63
2018-02-20 10:00:00 9.3 12 Nordeste 18 Nordeste 0 -- -- 78
2018-02-20 09:00:00 4 2 Norte 8 Nordeste 0 -- -- 94
2018-02-20 08:00:00 3.2 3 Nordeste 9 Nordeste 0 -- -- 91
2018-02-20 07:00:00 3.9 7 Nordeste 9 Nordeste 0 -- -- 93
2018-02-20 06:00:00 3.6 3 Nordeste 7 Nordeste 0 -- -- 90
2018-02-20 05:00:00 5.3 0 Calma 8 Nordeste 0 -- -- 82
2018-02-20 04:00:00 4.9 2 Norte 5 Norte 0 -- -- 89
2018-02-20 03:00:00 4.6 2 Norte 7 Este 0 -- -- 87
2018-02-20 02:00:00 6.4 3 Sudeste 13 Norte 0 -- -- 80
2018-02-20 01:00:00 7.8 5 Norte 11 Norte 0 -- -- 78
2018-02-20 00:00:00 8.1 5 Norte 11 Norte 0 -- -- 80
2018-02-19 23:00:00 8.2 5 Noroeste 13 Noroeste 0 -- -- 78
2018-02-19 22:00:00 8.8 7 Noroeste 14 Noroeste 0 -- -- 74
2018-02-19 21:00:00 10.2 8 Noroeste 14 Noroeste 0 -- -- 66
2018-02-19 20:00:00 12.4 8 Noroeste 11 Noroeste 0 -- -- 60
2018-02-19 19:00:00 16.5 7 Oeste 16 Nordeste 0 -- -- 51
2018-02-19 18:00:00 18.4 8 Nordeste 22 Nordeste 0 -- -- 38
2018-02-19 17:00:00 18.8 12 Nordeste 24 Nordeste 0 -- -- 35
2018-02-19 16:00:00 18.7 12 Nordeste 26 Nordeste 0 -- -- 38
2018-02-19 15:00:00 17.5 15 Nordeste 27 Nordeste 0 -- -- 40
2018-02-19 14:00:00 16.5 17 Nordeste 26 Nordeste 0 -- -- 45
2018-02-19 13:00:00 14.4 15 Nordeste 27 Nordeste 0 -- -- 53
2018-02-19 12:00:00 10.5 12 Nordeste 20 Nordeste 0 -- -- 93
2018-02-19 11:00:00 7.9 10 Nordeste 15 Nordeste 0 -- -- 99
2018-02-19 10:00:00 6.4 7 Nordeste 12 Nordeste 0 -- -- 98
2018-02-19 09:00:00 5.8 8 Nordeste 13 Nordeste 0 -- -- 98
2018-02-19 08:00:00 5 2 Norte 13 Norte 0 -- -- 97
2018-02-19 07:00:00 5.7 8 Nordeste 10 Nordeste 0 -- -- 99
2018-02-19 06:00:00 4.1 2 Nordeste 5 Nordeste 0 -- -- 98
2018-02-19 05:00:00 3.7 0 Calma 6 Norte 0 -- -- 96
2018-02-19 04:00:00 5.5 0 Calma 5 Noroeste 0 -- -- 97
2018-02-19 03:00:00 7 4 Oeste 8 Sudoeste 0 -- -- 99
2018-02-19 02:00:00 7.5 5 Oeste 7 Sudoeste 0 -- -- 98
2018-02-19 01:00:00 7.5 4 Sudoeste 7 Noroeste 0 -- -- 97
2018-02-19 00:00:00 7.8 4 Norte 8 Norte 0 -- -- 98
2018-02-18 23:00:00 6.3 4 Oeste 5 Oeste 0 -- -- 92
2018-02-18 22:00:00 8.3 3 Oeste 6 Sudoeste 0 -- -- 93
2018-02-18 21:00:00 9.4 4 Sudoeste 11 Oeste 0 -- -- 90
2018-02-18 20:00:00 10.3 7 Oeste 9 Oeste 0 -- -- 85
2018-02-18 19:00:00 14.3 7 Oeste 14 Sudoeste 0 -- -- 72
2018-02-18 18:00:00 17 11 Sudoeste 18 Sudoeste 0 -- -- 64
2018-02-18 17:00:00 18.3 8 Oeste 14 Oeste 0 -- -- 62
2018-02-18 16:00:00 16 4 Nordeste 9 Nordeste 0 -- -- 72
2018-02-18 15:00:00 12.8 3 Oeste 8 Este 0 -- -- 98
2018-02-18 14:00:00 10.5 3 Nordeste 7 Sudeste 0 -- -- 99
2018-02-18 13:00:00 10.2 0 Calma 12 Este 0 -- -- 99
2018-02-18 12:00:00 10.1 4 Este 12 Este 0 -- -- 99
2018-02-18 11:00:00 9.7 6 Este 13 Este 0.2 -- -- 99
2018-02-18 10:00:00 9.7 7 Nordeste 12 Nordeste 0 -- -- 99
2018-02-18 09:00:00 8.9 5 Nordeste 8 Nordeste 0 -- -- 99
2018-02-18 08:00:00 8.6 5 Nordeste 10 Nordeste 0 -- -- 98
2018-02-18 07:00:00 8.1 4 Nordeste 9 Nordeste 0 -- -- 98
2018-02-18 06:00:00 7.1 4 Norte 9 Nordeste 0 -- -- 99
2018-02-18 05:00:00 6.1 3 Norte 8 Norte 0 -- -- 98
2018-02-18 04:00:00 5.6 3 Norte 6 Nordeste 0 -- -- 97
2018-02-18 03:00:00 5.5 4 Nordeste 6 Nordeste 0 -- -- 97
2018-02-18 02:00:00 5.5 0 Calma 8 Nordeste 0 -- -- 95
2018-02-18 01:00:00 6.8 0 Calma 4 Nordeste 0 -- -- 95
2018-02-18 00:00:00 8 4 Sudoeste 6 Sur 0 -- -- 95
2018-02-17 23:00:00 8.7 4 Sudoeste 5 Sudoeste 0 -- -- 95
2018-02-17 22:00:00 9 5 Sudoeste 8 Sudoeste 0 -- -- 94
2018-02-17 21:00:00 9.1 7 Sudoeste 10 Sudoeste 0 -- -- 91
2018-02-17 20:00:00 10.3 5 Sudoeste 8 Sudoeste 0 -- -- 86
2018-02-17 19:00:00 12.6 6 Sudoeste 17 Sudoeste 0 -- -- 81
2018-02-17 18:00:00 15.8 14 Sudoeste 21 Sudoeste 0 -- -- 66
2018-02-17 17:00:00 17 14 Sudoeste 26 Oeste 0 -- -- 61
2018-02-17 16:00:00 17.4 17 Oeste 24 Oeste 0 -- -- 58
2018-02-17 15:00:00 17.1 16 Oeste 23 Sudoeste 0 -- -- 61
2018-02-17 14:00:00 16.2 12 Sudoeste 21 Oeste 0 -- -- 68
2018-02-17 13:00:00 14.7 13 Oeste 19 Oeste 0 -- -- 75
2018-02-17 12:00:00 11.2 9 Oeste 14 Oeste 0 -- -- 99
2018-02-17 11:00:00 8.1 3 Nordeste 7 Nordeste 0 -- -- 99
2018-02-17 10:00:00 6.2 5 Nordeste 8 Nordeste 0 -- -- 99
2018-02-17 09:00:00 5 4 Nordeste 6 Nordeste 0 -- -- 99
2018-02-17 08:00:00 3.6 4 Noroeste 8 Oeste 0 -- -- 99
2018-02-17 07:00:00 4.2 4 Oeste 8 Sudoeste 0 -- -- 96
2018-02-17 06:00:00 3.6 5 Sudoeste 9 Sur 0 -- -- 98
2018-02-17 05:00:00 3.6 5 Sur 5 Sudeste 0 -- -- 97
2018-02-17 04:00:00 4.7 4 Sur 5 Sur 0 -- -- 96
2018-02-17 03:00:00 6.2 2 Sudoeste 7 Oeste 0 -- -- 96
2018-02-17 02:00:00 7 5 Oeste 9 Oeste 0 -- -- 95
2018-02-17 01:00:00 8 7 Oeste 11 Oeste 0 -- -- 94
2018-02-17 00:00:00 9.7 4 Oeste 12 Oeste 0 -- -- 95
2018-02-16 23:00:00 10.7 10 Oeste 14 Oeste 0 -- -- 96
2018-02-16 22:00:00 11.8 11 Oeste 19 Oeste 0 -- -- 95
2018-02-16 21:00:00 11.4 11 Oeste 15 Oeste 0 -- -- 94
2018-02-16 20:00:00 12.1 10 Oeste 17 Noroeste 0 -- -- 88
2018-02-16 19:00:00 14.8 12 Oeste 23 Oeste 0 -- -- 77
2018-02-16 18:00:00 17.5 17 Oeste 26 Sudoeste 0 -- -- 66
2018-02-16 17:00:00 19.6 19 Sudoeste 24 Oeste 0 -- -- 58
2018-02-16 16:00:00 21.7 13 Oeste 23 Oeste 0 -- -- 52
2018-02-16 15:00:00 20.7 5 Nordeste 14 Este 0 -- -- 53
2018-02-16 14:00:00 20 6 Este 17 Este 0 -- -- 57
2018-02-16 13:00:00 18.6 8 Este 20 Nordeste 0 -- -- 61
2018-02-16 12:00:00 16.8 11 Nordeste 20 Nordeste 0 -- -- 67
2018-02-16 11:00:00 13.7 11 Nordeste 17 Nordeste 0 -- -- 75
2018-02-16 10:00:00 9.9 8 Nordeste 11 Nordeste 0 -- -- 97
2018-02-16 09:00:00 6.9 4 Nordeste 13 Nordeste 0 -- -- 96
2018-02-16 08:00:00 6.6 6 Norte 13 Norte 0 -- -- 95
2018-02-16 07:00:00 5.8 4 Norte 12 Norte 0 -- -- 96
2018-02-16 06:00:00 6 6 Norte 9 Nordeste 0 -- -- 94
2018-02-16 05:00:00 5.9 3 Norte 8 Nordeste 0 -- -- 95
2018-02-16 04:00:00 5.9 2 Norte 6 Este 0 -- -- 93
2018-02-16 03:00:00 6.9 3 Norte 6 Norte 0 -- -- 94
2018-02-16 02:00:00 7.4 3 Norte 9 Norte 0 -- -- 91
2018-02-16 01:00:00 8.8 4 Norte 9 Norte 0 -- -- 86
2018-02-16 00:00:00 9.7 5 Noroeste 13 Noroeste 0 -- -- 86
2018-02-15 23:00:00 10.3 8 Noroeste 13 Oeste 0 -- -- 88
2018-02-15 22:00:00 10.6 7 Oeste 14 Oeste 0 -- -- 81
2018-02-15 21:00:00 10.7 6 Oeste 14 Oeste 0 -- -- 74
2018-02-15 20:00:00 12.2 4 Oeste 10 Oeste 0 -- -- 71
2018-02-15 19:00:00 16.2 4 Oeste 14 Oeste 0 -- -- 60
2018-02-15 18:00:00 19.7 9 Sudoeste 18 Oeste 0 -- -- 53
2018-02-15 17:00:00 20.5 3 Nordeste 17 Nordeste 0 -- -- 48
2018-02-15 16:00:00 19.7 9 Nordeste 22 Nordeste 0 -- -- 50
2018-02-15 15:00:00 19 13 Nordeste 28 Nordeste 0 -- -- 53
2018-02-15 14:00:00 18.1 17 Nordeste 28 Nordeste 0 -- -- 56
2018-02-15 13:00:00 16.9 18 Nordeste 26 Nordeste 0 -- -- 60
2018-02-15 12:00:00 14.7 15 Nordeste 23 Norte 0 -- -- 67
2018-02-15 11:00:00 11.1 17 Nordeste 24 Nordeste 0 -- -- 81
2018-02-15 10:00:00 7.4 11 Nordeste 18 Nordeste 0 -- -- 99
2018-02-15 09:00:00 4.5 6 Nordeste 10 Nordeste 0 -- -- 99
2018-02-15 08:00:00 3.9 3 Norte 8 Nordeste 0 -- -- 98
2018-02-15 07:00:00 3.4 4 Norte 7 Norte 0 -- -- 97
2018-02-15 06:00:00 3.1 4 Norte 8 Nordeste 0 -- -- 98
2018-02-15 05:00:00 2.5 0 Calma 2 Oeste 0 -- -- 97
2018-02-15 04:00:00 2.3 0 Calma 2 Nordeste 0 -- -- 96
2018-02-15 03:00:00 3.3 0 Calma 5 Nordeste 0 -- -- 95
2018-02-15 02:00:00 4.4 0 Calma 6 Nordeste 0 -- -- 95
2018-02-15 01:00:00 5.4 3 Norte 5 Nordeste 0 -- -- 94
2018-02-15 00:00:00 6.9 3 Este 8 Oeste 0 -- -- 94
2018-02-14 23:00:00 8.5 7 Oeste 10 Oeste 0 -- -- 93
2018-02-14 22:00:00 9.3 8 Oeste 13 Oeste 0 -- -- 94
2018-02-14 21:00:00 8.7 9 Oeste 11 Oeste 0 -- -- 94
2018-02-14 20:00:00 9.8 7 Oeste 10 Sudoeste 0 -- -- 88
2018-02-14 19:00:00 12.5 9 Sudoeste 17 Oeste 0 -- -- 78
2018-02-14 18:00:00 15.4 13 Sudoeste 19 Sudoeste 0 -- -- 61
2018-02-14 17:00:00 15.3 15 Sudoeste 20 Sudoeste 0 -- -- 62
2018-02-14 16:00:00 15.2 16 Sudoeste 23 Sudoeste 0 -- -- 59
2018-02-14 15:00:00 16.2 14 Oeste 21 Oeste 0 -- -- 54
2018-02-14 14:00:00 14.9 4 Este 12 Nordeste 0 -- -- 59
2018-02-14 13:00:00 14.1 6 Nordeste 11 Nordeste 0 -- -- 65
2018-02-14 12:00:00 11.7 5 Nordeste 12 Nordeste 0 -- -- 74
2018-02-14 11:00:00 8.5 8 Nordeste 13 Norte 0 -- -- 93
2018-02-14 10:00:00 5.8 6 Nordeste 9 Nordeste 0 -- -- 98
2018-02-14 09:00:00 1.6 3 Nordeste 5 Norte 0 -- -- 99
2018-02-14 08:00:00 1 0 Calma 3 Noroeste 0 -- -- 97
2018-02-14 07:00:00 3.3 2 Nordeste 6 Norte 0 -- -- 97
2018-02-14 06:00:00 2.4 3 Noroeste 5 Noroeste 0 -- -- 97
2018-02-14 05:00:00 1.2 0 Calma 4 Noroeste 0 -- -- 96
2018-02-14 04:00:00 1.6 2 Nordeste 3 Este 0 -- -- 95
2018-02-14 03:00:00 2.5 4 Nordeste 6 Nordeste 0 -- -- 94
2018-02-14 02:00:00 3.3 4 Nordeste 6 Nordeste 0 -- -- 93
2018-02-14 01:00:00 5 3 Norte 8 Noroeste 0 -- -- 95
2018-02-14 00:00:00 6.5 8 Oeste 9 Oeste 0 -- -- 96
2018-02-13 23:00:00 5.5 8 Oeste 10 Oeste 0 -- -- 92
2018-02-13 22:00:00 6.9 8 Oeste 10 Oeste 0 -- -- 90
2018-02-13 21:00:00 8.3 8 Oeste 15 Oeste 0 -- -- 86
2018-02-13 20:00:00 9.4 11 Oeste 17 Oeste 0 -- -- 80
2018-02-13 19:00:00 11.4 13 Oeste 25 Oeste 0 -- -- 71
2018-02-13 18:00:00 13.9 20 Oeste 30 Oeste 0 -- -- 59
2018-02-13 17:00:00 14.9 19 Sudoeste 30 Oeste 0 -- -- 51
2018-02-13 16:00:00 14.8 21 Oeste 29 Oeste 0 -- -- 54
2018-02-13 15:00:00 15.3 22 Sudoeste 28 Sudoeste 0 -- -- 50
2018-02-13 14:00:00 15.2 20 Sudoeste 29 Oeste 0 -- -- 50
2018-02-13 13:00:00 14.7 17 Oeste 26 Sudoeste 0 -- -- 53
2018-02-13 12:00:00 13.8 13 Oeste 23 Sudoeste 0 -- -- 54
2018-02-13 11:00:00 11.8 9 Noroeste 19 Noroeste 0 -- -- 56
2018-02-13 10:00:00 7.9 9 Oeste 16 Oeste 0 -- -- 75
2018-02-13 09:00:00 3.4 6 Oeste 14 Noroeste 0 -- -- 87
2018-02-13 08:00:00 2 5 Oeste 9 Noroeste 0 -- -- 87
2018-02-13 07:00:00 1.2 5 Oeste 8 Oeste 0 -- -- 86
2018-02-13 06:00:00 0.7 6 Oeste 8 Oeste 0 -- -- 85
2018-02-13 05:00:00 1 5 Oeste 8 Sudoeste 0 -- -- 82
2018-02-13 04:00:00 2.1 5 Oeste 12 Sudoeste 0 -- -- 77
2018-02-13 03:00:00 4.1 4 Noroeste 11 Norte 0 -- -- 68
2018-02-13 02:00:00 5 5 Noroeste 10 Noroeste 0 -- -- 68
2018-02-13 01:00:00 6.1 6 Noroeste 15 Noroeste 0 -- -- 62
2018-02-13 00:00:00 7.2 9 Noroeste 17 Noroeste 0 -- -- 58
2018-02-12 23:00:00 7.7 13 Noroeste 18 Noroeste 0 -- -- 54
2018-02-12 22:00:00 7.8 8 Noroeste 13 Noroeste 0 -- -- 50
2018-02-12 21:00:00 7.5 7 Oeste 12 Noroeste 0 -- -- 55
2018-02-12 20:00:00 11.3 8 Noroeste 15 Noroeste 0 -- -- 43
2018-02-12 19:00:00 14.9 6 Noroeste 25 Oeste 0 -- -- 39
2018-02-12 18:00:00 17.7 11 Noroeste 31 Noroeste 0 -- -- 34
2018-02-12 17:00:00 18 15 Noroeste 32 Noroeste 0 -- -- 32
2018-02-12 16:00:00 18.1 24 Oeste 36 Oeste 0 -- -- 40
2018-02-12 15:00:00 18 16 Noroeste 36 Noroeste 0 -- -- 37
2018-02-12 14:00:00 17.4 20 Oeste 31 Oeste 0 -- -- 60
2018-02-12 13:00:00 13.7 15 Oeste 38 Oeste 0 -- -- 93
2018-02-12 12:00:00 14.5 24 Oeste 33 Oeste 0 -- -- 85
2018-02-12 11:00:00 14.7 17 Oeste 24 Sudoeste 0 -- -- 84
2018-02-12 10:00:00 13.1 10 Oeste 13 Oeste 0 -- -- 88
2018-02-12 09:00:00 11.7 6 Oeste 13 Noroeste 0 -- -- 90
2018-02-12 08:00:00 12.1 7 Oeste 20 Noroeste 0 -- -- 88
2018-02-12 07:00:00 11.1 10 Noroeste 17 Noroeste 0 -- -- 89
2018-02-12 06:00:00 12.3 8 Noroeste 21 Noroeste 0 -- -- 85
2018-02-12 05:00:00 11.6 12 Noroeste 20 Oeste 0 -- -- 95
2018-02-12 04:00:00 11.2 10 Oeste 18 Oeste 0 -- -- 94
2018-02-12 03:00:00 11.6 10 Oeste 14 Oeste 0 -- -- 93
2018-02-12 02:00:00 12.6 8 Oeste 14 Oeste 0 -- -- 89
2018-02-12 01:00:00 13.2 7 Oeste 13 Noroeste 0 -- -- 88
2018-02-12 00:00:00 13.3 9 Oeste 15 Sudoeste 0 -- -- 91
2018-02-11 23:00:00 13.5 10 Sudoeste 15 Oeste 0 -- -- 89
2018-02-11 22:00:00 13.4 9 Oeste 17 Oeste 0 -- -- 87
2018-02-11 21:00:00 13.4 12 Oeste 20 Oeste 0 -- -- 86
2018-02-11 20:00:00 13.1 12 Sudoeste 21 Sudoeste 0 -- -- 85
2018-02-11 19:00:00 12.8 15 Sudoeste 24 Sudoeste 0 -- -- 83
2018-02-11 18:00:00 14.1 19 Sudoeste 25 Sudoeste 0 -- -- 70
2018-02-11 17:00:00 15.6 18 Sudoeste 25 Sudoeste 0 -- -- 59
2018-02-11 16:00:00 16.1 19 Sudoeste 24 Oeste 0 -- -- 52
2018-02-11 15:00:00 16.2 17 Sudoeste 23 Oeste 0 -- -- 47
2018-02-11 14:00:00 15.5 17 Oeste 22 Oeste 0 -- -- 47
2018-02-11 13:00:00 15.9 9 Sudoeste 19 Sudoeste 0 -- -- 48
2018-02-11 12:00:00 13.3 4 Este 13 Este 0 -- -- 54
2018-02-11 11:00:00 10.7 5 Este 10 Este 0 -- -- 65
2018-02-11 10:00:00 5 3 Nordeste 5 Norte 0 -- -- 92
2018-02-11 09:00:00 0.8 4 Sudoeste 8 Sudoeste 0 -- -- 90
2018-02-11 08:00:00 1.6 4 Noroeste 10 Norte 0 -- -- 87
2018-02-11 07:00:00 2.7 6 Norte 12 Norte 0 -- -- 87
2018-02-11 06:00:00 2.3 2 Norte 8 Norte 0 -- -- 86
2018-02-11 05:00:00 2.3 2 Norte 9 Noroeste 0 -- -- 88
2018-02-11 04:00:00 3 2 Norte 11 Este 0 -- -- 90
2018-02-11 03:00:00 4.2 5 Norte 13 Noroeste 0 -- -- 84
2018-02-11 02:00:00 5.1 6 Noroeste 12 Noroeste 0 -- -- 78
2018-02-11 01:00:00 5.8 6 Noroeste 14 Noroeste 0 -- -- 84
2018-02-11 00:00:00 5.2 7 Noroeste 10 Noroeste 0 -- -- 93
2018-02-10 23:00:00 5.7 3 Noroeste 9 Noroeste 0 -- -- 81
2018-02-10 22:00:00 7.4 6 Norte 12 Nordeste 0 -- -- 88
2018-02-10 21:00:00 8 8 Nordeste 13 Nordeste 0 -- -- 90
2018-02-10 20:00:00 9.1 3 Sudeste 10 Sudeste 0 -- -- 79
2018-02-10 19:00:00 12 6 Sudeste 15 Sur 0 -- -- 72
2018-02-10 18:00:00 14.7 10 Sudoeste 17 Sudoeste 0 -- -- 62
2018-02-10 17:00:00 15.5 12 Sudoeste 22 Oeste 0 -- -- 61
2018-02-10 16:00:00 15.1 16 Oeste 23 Oeste 0 -- -- 61
2018-02-10 15:00:00 15.3 15 Sudoeste 23 Sudoeste 0 -- -- 59
2018-02-10 14:00:00 14.9 11 Sudoeste 17 Sudoeste 0 -- -- 60
2018-02-10 13:00:00 12.8 7 Nordeste 18 Nordeste 0 -- -- 67
2018-02-10 12:00:00 11.2 6 Nordeste 14 Este 0 -- -- 72
2018-02-10 11:00:00 9.9 4 Nordeste 10 Este 0 -- -- 79
2018-02-10 10:00:00 6.4 4 Norte 10 Norte 0 -- -- 97
2018-02-10 09:00:00 2.7 6 Noroeste 8 Norte 0 -- -- 95
2018-02-10 08:00:00 3.1 0 Calma 10 Norte 0 -- -- 90
2018-02-10 07:00:00 4.2 4 Norte 13 Noroeste 0 -- -- 94
2018-02-10 06:00:00 4 6 Noroeste 13 Norte 0 -- -- 95
2018-02-10 05:00:00 4.2 4 Norte 8 Noroeste 0 -- -- 94
2018-02-10 04:00:00 4.7 4 Norte 15 Noroeste 0 -- -- 93
2018-02-10 03:00:00 4.5 4 Norte 10 Norte 0 -- -- 94
2018-02-10 02:00:00 5.3 5 Norte 10 Norte 0 -- -- 94
2018-02-10 01:00:00 6.2 3 Oeste 7 Noroeste 0 -- -- 94
2018-02-10 00:00:00 6.3 0 Calma 2 Sudoeste 0 -- -- 87
2018-02-09 23:00:00 8.5 0 Calma 8 Oeste 0 -- -- 87
2018-02-09 22:00:00 9.2 2 Oeste 3 Sudoeste 0 -- -- 85
2018-02-09 21:00:00 9.3 0 Calma 6 Sudoeste 0 -- -- 84
2018-02-09 20:00:00 9.5 4 Sudoeste 8 Oeste 0 -- -- 82
2018-02-09 19:00:00 9.8 4 Noroeste 10 Sudoeste 0 -- -- 81
2018-02-09 18:00:00 10.2 7 Sudoeste 20 Sudoeste 0 -- -- 79
2018-02-09 17:00:00 10.8 15 Oeste 23 Oeste 0 -- -- 77
2018-02-09 16:00:00 11.4 17 Oeste 24 Oeste 0 -- -- 65
2018-02-09 15:00:00 12.4 13 Oeste 18 Oeste 0 -- -- 49
2018-02-09 14:00:00 12.1 11 Sudoeste 17 Oeste 0 -- -- 50
2018-02-09 13:00:00 12 13 Oeste 18 Oeste 0 -- -- 42
2018-02-09 12:00:00 11 4 Sudeste 9 Este 0 -- -- 46
2018-02-09 11:00:00 7.7 3 Este 9 Nordeste 0 -- -- 52
2018-02-09 10:00:00 2.9 3 Norte 6 Norte 0 -- -- 72
2018-02-09 09:00:00 -2.1 0 Calma 6 Sudoeste 0 -- -- 87
2018-02-09 08:00:00 -1.5 2 Sudeste 10 Sudeste 0 -- -- 81
2018-02-09 07:00:00 1.2 5 Noroeste 11 Norte 0 -- -- 63
2018-02-09 06:00:00 1 6 Noroeste 11 Norte 0 -- -- 64
2018-02-09 05:00:00 0.6 6 Noroeste 13 Norte 0 -- -- 66
2018-02-09 04:00:00 0.2 7 Noroeste 12 Noroeste 0 -- -- 67
2018-02-09 03:00:00 0.7 3 Norte 11 Noroeste 0 -- -- 74
2018-02-09 02:00:00 2 5 Noroeste 14 Norte 0 -- -- 60
2018-02-09 01:00:00 2.5 6 Noroeste 13 Noroeste 0 -- -- 59
2018-02-09 00:00:00 4.2 8 Norte 14 Norte 0 -- -- 53
2018-02-08 23:00:00 5.2 8 Norte 15 Nordeste 0 -- -- 51
2018-02-08 22:00:00 6 7 Norte 17 Noroeste 0 -- -- 49
2018-02-08 21:00:00 7.3 6 Norte 11 Norte 0 -- -- 47
2018-02-08 20:00:00 8.1 5 Noroeste 8 Norte 0 -- -- 55
2018-02-08 19:00:00 12 0 Calma 10 Nordeste 0 -- -- 47
2018-02-08 18:00:00 13.6 8 Nordeste 23 Nordeste 0 -- -- 40
2018-02-08 17:00:00 13.9 12 Nordeste 23 Nordeste 0 -- -- 37
2018-02-08 16:00:00 13.9 13 Nordeste 24 Nordeste 0 -- -- 39
2018-02-08 15:00:00 13.1 17 Nordeste 26 Nordeste 0 -- -- 40
2018-02-08 14:00:00 12.2 18 Nordeste 35 Nordeste 0 -- -- 45
2018-02-08 13:00:00 10.7 24 Nordeste 37 Nordeste 0 -- -- 47
2018-02-08 12:00:00 9.6 23 Nordeste 36 Nordeste 0 -- -- 48
2018-02-08 11:00:00 7.6 20 Nordeste 28 Nordeste 0 -- -- 53
2018-02-08 10:00:00 4.1 13 Nordeste 20 Nordeste 0 -- -- 64
2018-02-08 09:00:00 -0.2 5 Nordeste 9 Noroeste 0 -- -- 82
2018-02-08 08:00:00 -0.1 3 Norte 9 Nordeste 0 -- -- 79
2018-02-08 07:00:00 2.4 6 Norte 14 Norte 0 -- -- 67
2018-02-08 06:00:00 3 6 Norte 12 Nordeste 0 -- -- 66
2018-02-08 05:00:00 3.7 7 Norte 15 Norte 0 -- -- 64
2018-02-08 04:00:00 3.1 6 Norte 11 Noroeste 0 -- -- 67
2018-02-08 03:00:00 2.9 5 Norte 11 Norte 0 -- -- 67
2018-02-08 02:00:00 3 5 Norte 11 Norte 0 -- -- 67
2018-02-08 01:00:00 2.6 4 Norte 11 Nordeste 0 -- -- 70
2018-02-08 00:00:00 3.2 10 Nordeste 17 Nordeste 0 -- -- 78
2018-02-07 23:00:00 4 10 Nordeste 17 Nordeste 0 -- -- 76
2018-02-07 22:00:00 5.4 11 Nordeste 21 Nordeste 0 -- -- 70
2018-02-07 21:00:00 6 10 Nordeste 14 Nordeste 0 -- -- 74
2018-02-07 20:00:00 7.8 9 Nordeste 18 Nordeste 0 -- -- 66
2018-02-07 19:00:00 10.2 10 Nordeste 31 Nordeste 0 -- -- 54
2018-02-07 18:00:00 11.8 19 Nordeste 37 Nordeste 0 -- -- 42
2018-02-07 17:00:00 12.5 22 Nordeste 37 Nordeste 0 -- -- 40
2018-02-07 16:00:00 13.2 18 Este 37 Nordeste 0 -- -- 40
2018-02-07 15:00:00 12.9 18 Este 40 Nordeste 0 -- -- 44
2018-02-07 14:00:00 12.1 20 Nordeste 33 Este 0 -- -- 48
2018-02-07 13:00:00 10 18 Nordeste 30 Nordeste 0 -- -- 64
2018-02-07 12:00:00 9 14 Nordeste 28 Nordeste 0 -- -- 71
2018-02-07 11:00:00 6 19 Nordeste 27 Nordeste 0 -- -- 75
2018-02-07 10:00:00 2.5 9 Nordeste 16 Nordeste 0 -- -- 84
2018-02-07 09:00:00 -1.9 7 Nordeste 12 Norte 0 -- -- 90
2018-02-07 08:00:00 -1.9 3 Norte 8 Nordeste 0 -- -- 85
2018-02-07 07:00:00 -1.7 5 Nordeste 11 Nordeste 0 -- -- 86
2018-02-07 06:00:00 -1 4 Noroeste 13 Noroeste 0 -- -- 73
2018-02-07 05:00:00 1.3 10 Noroeste 14 Noroeste 0 -- -- 66
2018-02-07 04:00:00 1.4 7 Noroeste 13 Noroeste 0 -- -- 66
2018-02-07 03:00:00 0.1 6 Noroeste 10 Noroeste 0 -- -- 71
2018-02-07 02:00:00 1.2 7 Noroeste 11 Noroeste 0 -- -- 70
2018-02-07 01:00:00 4.1 6 Noroeste 10 Norte 0 -- -- 59
2018-02-07 00:00:00 5.6 4 Norte 10 Norte 0 -- -- 57
2018-02-06 23:00:00 7.1 4 Norte 10 Noroeste 0 -- -- 54
2018-02-06 22:00:00 8.1 6 Noroeste 17 Noroeste 0 -- -- 52
2018-02-06 21:00:00 7.9 11 Noroeste 19 Noroeste 0 -- -- 51
2018-02-06 20:00:00 8.5 11 Oeste 21 Oeste 0 -- -- 50
2018-02-06 19:00:00 11 10 Oeste 31 Noroeste 0 -- -- 46
2018-02-06 18:00:00 14.2 9 Noroeste 23 Sudoeste 0 -- -- 37
2018-02-06 17:00:00 13.9 7 Sur 18 Noroeste 0 -- -- 45
2018-02-06 16:00:00 13.1 7 Nordeste 19 Nordeste 0 -- -- 44
2018-02-06 15:00:00 13.7 7 Norte 21 Noroeste 0 -- -- 44
2018-02-06 14:00:00 11.7 8 Norte 20 Norte 0 -- -- 51
2018-02-06 13:00:00 11.5 9 Norte 23 Nordeste 0 -- -- 53
2018-02-06 12:00:00 10.2 13 Norte 36 Noroeste 0 -- -- 58
2018-02-06 11:00:00 8.7 8 Norte 22 Noroeste 0 -- -- 59
2018-02-06 10:00:00 6.1 9 Noroeste 19 Noroeste 0 -- -- 69
2018-02-06 09:00:00 4.4 5 Norte 16 Noroeste 0 -- -- 73
2018-02-06 08:00:00 2.9 6 Noroeste 14 Noroeste 0 -- -- 80
2018-02-06 07:00:00 3 5 Noroeste 17 Norte 0 -- -- 77
2018-02-06 06:00:00 3.7 9 Noroeste 19 Norte 0 -- -- 77
2018-02-06 05:00:00 2.3 5 Noroeste 11 Noroeste 0 -- -- 82
2018-02-06 04:00:00 2.3 4 Noroeste 13 Noroeste 0 -- -- 81
2018-02-06 03:00:00 3.1 7 Noroeste 14 Noroeste -- -- -- 81
2018-02-06 02:00:00 3.4 7 Noroeste 15 Noroeste 0 -- -- 83
2018-02-06 01:00:00 3.9 3 Noroeste 13 Noroeste 0 -- -- 80
2018-02-06 00:00:00 3.8 6 Noroeste 13 Noroeste 0 -- -- 79
2018-02-05 23:00:00 4.5 6 Noroeste 10 Noroeste 0 -- -- 76
2018-02-05 22:00:00 5.6 5 Noroeste 9 Noroeste 0 -- -- 74
2018-02-05 21:00:00 5.6 3 Noroeste 6 Oeste 0 -- -- 76
2018-02-05 20:00:00 7.4 0 Calma 17 Nordeste 0 -- -- 71
2018-02-05 19:00:00 10.1 8 Nordeste 18 Nordeste 0 -- -- 61
2018-02-05 18:00:00 12.8 13 Noroeste 36 Oeste 0 -- -- 46
2018-02-05 17:00:00 13.5 22 Oeste 38 Oeste 0 -- -- 50
2018-02-05 16:00:00 13 27 Oeste 41 Oeste 0 -- -- 53
2018-02-05 15:00:00 13.6 23 Oeste 36 Oeste 0 -- -- 51
2018-02-05 14:00:00 12.2 16 Oeste 27 Oeste 0 -- -- 55
2018-02-05 13:00:00 11.5 14 Sudoeste 21 Sudoeste 0 -- -- 63
2018-02-05 12:00:00 10.7 5 Sudoeste 12 Oeste 0 -- -- 63
2018-02-05 11:00:00 8 0 Calma 6 Este 0 -- -- 76
2018-02-05 10:00:00 2.3 0 Calma 10 Sudeste 0 -- -- 92
2018-02-05 09:00:00 0.2 3 Noroeste 12 Noroeste 0 -- -- 88
2018-02-05 08:00:00 0.1 3 Oeste 8 Noroeste 0 -- -- 87
2018-02-05 07:00:00 1.5 2 Noroeste 14 Noroeste 0 -- -- 84
2018-02-05 06:00:00 1.1 5 Norte 10 Noroeste 0 -- -- 87
2018-02-05 05:00:00 1.1 4 Noroeste 10 Noroeste 0 -- -- 86
2018-02-05 04:00:00 1.8 4 Norte 9 Norte 0 -- -- 84
2018-02-05 03:00:00 2.1 4 Norte 13 Noroeste 0 -- -- 84
2018-02-05 02:00:00 3.2 4 Noroeste 14 Noroeste 0 -- -- 81
2018-02-05 01:00:00 3.4 6 Noroeste 12 Noroeste 0 -- -- 82
2018-02-05 00:00:00 4.3 4 Noroeste 15 Noroeste 0 -- -- 80
2018-02-04 23:00:00 4.8 9 Noroeste 17 Noroeste 0 -- -- 80
2018-02-04 22:00:00 5.5 9 Noroeste 15 Oeste 0 -- -- 79
2018-02-04 21:00:00 6.6 9 Noroeste 17 Oeste 0 -- -- 79
2018-02-04 20:00:00 6.9 8 Noroeste 13 Oeste 0 -- -- 84
2018-02-04 19:00:00 7.8 8 Oeste 11 Oeste 0 -- -- 86
2018-02-04 18:00:00 8.6 6 Oeste 19 Sudoeste 0 -- -- 86
2018-02-04 17:00:00 9.3 6 Sudoeste 13 Sudoeste 0 -- -- 87
2018-02-04 16:00:00 9.2 10 Sur 15 Sur 0.4 -- -- 92
2018-02-04 15:00:00 8.7 4 Nordeste 23 Nordeste 1.6 -- -- 88
2018-02-04 14:00:00 11.8 7 Norte 18 Noroeste 0 -- -- 61
2018-02-04 13:00:00 10.6 6 Noroeste 17 Oeste 0 -- -- 77
2018-02-04 12:00:00 9.4 6 Oeste 12 Noroeste 0.4 -- -- 90
2018-02-04 11:00:00 9.3 10 Oeste 19 Oeste 0 -- -- 85
2018-02-04 10:00:00 7.6 7 Oeste 14 Oeste 0 -- -- 92
2018-02-04 09:00:00 7.3 9 Oeste 15 Oeste 0 -- -- 92
2018-02-04 08:00:00 7.5 11 Oeste 17 Oeste 0 -- -- 91
2018-02-04 07:00:00 8.3 10 Noroeste 22 Noroeste 0 -- -- 89
2018-02-04 06:00:00 8.6 10 Oeste 19 Oeste 0 -- -- 90
2018-02-04 05:00:00 9.8 12 Oeste 21 Oeste 0 -- -- 92
2018-02-04 04:00:00 9.9 15 Oeste 24 Oeste 0 -- -- 94
2018-02-04 03:00:00 10.1 17 Oeste 28 Oeste 0 -- -- 87
2018-02-04 02:00:00 8.4 8 Oeste 14 Oeste 0 -- -- 79
2018-02-04 01:00:00 8.3 7 Oeste 17 Oeste 0 -- -- 73
2018-02-04 00:00:00 7.8 10 Oeste 18 Oeste 0 -- -- 70
2018-02-03 23:00:00 5.5 9 Sudoeste 11 Oeste 0 -- -- 71
2018-02-03 22:00:00 6.8 9 Oeste 16 Oeste 0 -- -- 62
2018-02-03 21:00:00 7.3 10 Oeste 15 Oeste 0 -- -- 58
2018-02-03 20:00:00 9.6 9 Oeste 19 Sudoeste 0 -- -- 53
2018-02-03 19:00:00 10.7 12 Sudoeste 22 Sudoeste 0 -- -- 61
2018-02-03 18:00:00 13.2 16 Sudoeste 28 Sudoeste 0 -- -- 59
2018-02-03 17:00:00 14.1 18 Sudoeste 25 Sudoeste 0 -- -- 53
2018-02-03 16:00:00 14.5 15 Sudoeste 25 Sudoeste 0 -- -- 45
2018-02-03 15:00:00 14.9 15 Sudoeste 22 Sudoeste 0 -- -- 39
2018-02-03 14:00:00 14.3 5 Sudeste 15 Sur 0 -- -- 40
2018-02-03 13:00:00 12.9 4 Este 9 Este 0 -- -- 43
2018-02-03 12:00:00 10.3 4 Nordeste 10 Nordeste 0 -- -- 50
2018-02-03 11:00:00 8.3 5 Nordeste 12 Nordeste 0 -- -- 55
2018-02-03 10:00:00 3.7 3 Noroeste 10 Norte 0 -- -- 76
2018-02-03 09:00:00 -2.3 0 Calma 3 Oeste 0 -- -- 92
2018-02-03 08:00:00 -3 0 Calma 4 Noroeste 0 -- -- 87
2018-02-03 07:00:00 -1.1 3 Noroeste 9 Noroeste 0 -- -- 80
2018-02-03 06:00:00 0.2 4 Norte 12 Norte 0 -- -- 80
2018-02-03 05:00:00 1.1 6 Noroeste 12 Norte 0 -- -- 75
2018-02-03 04:00:00 1.4 5 Norte 14 Norte 0 -- -- 81
2018-02-03 03:00:00 3.2 5 Norte 16 Norte 0 -- -- 66
2018-02-03 02:00:00 2.9 8 Noroeste 12 Noroeste 0 -- -- 68
2018-02-03 01:00:00 3.7 5 Noroeste 15 Noroeste 0 -- -- 64
2018-02-03 00:00:00 4.7 5 Noroeste 17 Noroeste 0 -- -- 62
2018-02-02 23:00:00 5 8 Noroeste 15 Noroeste 0 -- -- 62
2018-02-02 22:00:00 6 4 Noroeste 13 Noroeste 0 -- -- 60
2018-02-02 21:00:00 7.6 5 Noroeste 12 Noroeste 0 -- -- 59
2018-02-02 20:00:00 7.4 5 Oeste 9 Oeste 0 -- -- 67
2018-02-02 19:00:00 10.9 6 Oeste 18 Oeste 0 -- -- 55
2018-02-02 18:00:00 13.6 14 Sudoeste 23 Sudoeste 0 -- -- 45
2018-02-02 17:00:00 14.9 15 Oeste 23 Sudoeste 0 -- -- 44
2018-02-02 16:00:00 14.9 11 Sur 30 Sudoeste 0 -- -- 43
2018-02-02 15:00:00 13.4 6 Nordeste 16 Nordeste 0 -- -- 39
2018-02-02 14:00:00 12.9 8 Este 17 Nordeste 0 -- -- 42
2018-02-02 13:00:00 11.8 8 Norte 22 Nordeste 0 -- -- 48
2018-02-02 12:00:00 10.8 10 Nordeste 22 Nordeste 0 -- -- 53
2018-02-02 11:00:00 9.4 6 Norte 20 Norte 0 -- -- 59
2018-02-02 10:00:00 6.3 11 Noroeste 21 Noroeste 0 -- -- 72
2018-02-02 09:00:00 3.8 7 Noroeste 13 Noroeste 0 -- -- 81
2018-02-02 08:00:00 4.9 4 Noroeste 14 Noroeste 0 -- -- 76
2018-02-02 07:00:00 5.5 6 Noroeste 22 Noroeste 0 -- -- 75
2018-02-02 06:00:00 6.2 11 Noroeste 24 Noroeste 0 -- -- 74
2018-02-02 05:00:00 6.5 14 Noroeste 26 Oeste 0 -- -- 76
2018-02-02 04:00:00 6.9 11 Noroeste 24 Noroeste 0 -- -- 76
2018-02-02 03:00:00 7.4 10 Noroeste 28 Noroeste 0 -- -- 75
2018-02-02 02:00:00 8.4 17 Noroeste 32 Noroeste 0 -- -- 70
2018-02-02 01:00:00 9.7 17 Noroeste 37 Noroeste 0 -- -- 64
2018-02-02 00:00:00 9.7 14 Noroeste 35 Noroeste 0 -- -- 63
2018-02-01 23:00:00 9.9 15 Noroeste 27 Noroeste 0 -- -- 63
2018-02-01 22:00:00 9.6 13 Oeste 20 Oeste 0 -- -- 68
2018-02-01 21:00:00 11.3 8 Oeste 19 Noroeste 0 -- -- 64
2018-02-01 20:00:00 11.7 8 Oeste 17 Noroeste 0 -- -- 69
2018-02-01 19:00:00 13.3 10 Oeste 20 Noroeste 0 -- -- 70
2018-02-01 18:00:00 15.8 13 Oeste 32 Norte 0 -- -- 58
2018-02-01 17:00:00 15.8 18 Noroeste 37 Noroeste 0 -- -- 57
2018-02-01 16:00:00 16 21 Oeste 37 Oeste 0 -- -- 63
2018-02-01 15:00:00 15.1 25 Oeste 36 Oeste 0 -- -- 68
2018-02-01 14:00:00 14.3 21 Oeste 27 Sudoeste 0 -- -- 71
2018-02-01 13:00:00 14.3 16 Oeste 24 Oeste 0 -- -- 68
2018-02-01 12:00:00 14.5 14 Sudoeste 20 Sudoeste 0 -- -- 69
2018-02-01 11:00:00 12.7 9 Sudoeste 16 Oeste 0 -- -- 75
2018-02-01 10:00:00 8.9 6 Sudoeste 13 Oeste 0 -- -- 98
2018-02-01 09:00:00 6.9 6 Oeste 11 Noroeste 0 -- -- 99
2018-02-01 08:00:00 4.9 5 Oeste 7 Oeste 0 -- -- 95
2018-02-01 07:00:00 5.4 3 Sudeste 6 Noroeste 0 -- -- 94
2018-02-01 06:00:00 6.1 3 Sur 7 Sudeste 0 -- -- 95
2018-02-01 05:00:00 7.8 0 Calma 6 Oeste 0 -- -- 94
2018-02-01 04:00:00 8.8 4 Oeste 9 Oeste 0 -- -- 96
2018-02-01 03:00:00 7.7 8 Oeste 10 Oeste 0 -- -- 92
2018-02-01 02:00:00 9.2 6 Oeste 9 Oeste 0 -- -- 87
2018-02-01 01:00:00 10.5 5 Noroeste 9 Noroeste 0 -- -- 85
2018-02-01 00:00:00 11.5 0 Calma 9 Oeste 0 -- -- 82
2018-01-31 23:00:00 12.3 6 Oeste 10 Sur 0 -- -- 80
2018-01-31 22:00:00 13.2 7 Sudoeste 15 Sur 0 -- -- 76
2018-01-31 21:00:00 13.8 9 Sur 18 Sur 0 -- -- 74
2018-01-31 20:00:00 14 7 Sudoeste 15 Sudoeste 0 -- -- 73
2018-01-31 19:00:00 15.2 3 Sudoeste 6 Nordeste 0 -- -- 66
2018-01-31 18:00:00 16.7 4 Nordeste 23 Nordeste 0 -- -- 58
2018-01-31 17:00:00 17.3 15 Nordeste 26 Nordeste 0 -- -- 54
2018-01-31 16:00:00 17.8 13 Nordeste 26 Nordeste 0 -- -- 54
2018-01-31 15:00:00 17.4 18 Nordeste 28 Nordeste 0 -- -- 55
2018-01-31 14:00:00 16.9 15 Nordeste 26 Nordeste 0 -- -- 57
2018-01-31 13:00:00 16.6 16 Nordeste 25 Nordeste 0 -- -- 60
2018-01-31 12:00:00 16 15 Este 26 Este 0 -- -- 61
2018-01-31 11:00:00 13.8 17 Nordeste 28 Norte 0 -- -- 70
2018-01-31 10:00:00 11.5 15 Nordeste 24 Nordeste 0 -- -- 78
2018-01-31 09:00:00 9.2 10 Nordeste 18 Nordeste 0 -- -- 88
2018-01-31 08:00:00 9.5 13 Nordeste 18 Nordeste 0 -- -- 88
2018-01-31 07:00:00 9.7 9 Nordeste 16 Este 0 -- -- 88
2018-01-31 06:00:00 10.3 6 Este 16 Este 0 -- -- 85
2018-01-31 05:00:00 11.5 9 Nordeste 24 Nordeste 0 -- -- 79
2018-01-31 04:00:00 11.8 13 Nordeste 35 Nordeste 0 -- -- 77
2018-01-31 03:00:00 11.1 13 Nordeste 33 Nordeste 0.2 -- -- 82
2018-01-31 02:00:00 10.8 12 Nordeste 19 Nordeste 0 -- -- 81
2018-01-31 01:00:00 10.7 9 Nordeste 14 Norte 0 -- -- 81
2018-01-31 00:00:00 11.3 9 Nordeste 17 Este 0 -- -- 78
2018-01-30 23:00:00 11.1 11 Nordeste 19 Nordeste 0 -- -- 80
2018-01-30 22:00:00 11.2 9 Nordeste 16 Nordeste 0 -- -- 81
2018-01-30 21:00:00 12.2 5 Nordeste 13 Nordeste 0 -- -- 79
2018-01-30 20:00:00 13 9 Nordeste 17 Nordeste 0 -- -- 77
2018-01-30 19:00:00 13.8 8 Nordeste 17 Nordeste 0 -- -- 77
2018-01-30 18:00:00 14.8 7 Nordeste 22 Este 0 -- -- 69
2018-01-30 17:00:00 15.7 10 Este 20 Este 0 -- -- 65
2018-01-30 16:00:00 16.7 9 Este 27 Este 0 -- -- 60
2018-01-30 15:00:00 17.1 16 Este 30 Nordeste 0 -- -- 59
2018-01-30 14:00:00 15.3 17 Nordeste 33 Este 0 -- -- 65
2018-01-30 13:00:00 15 18 Nordeste 36 Nordeste 0 -- -- 64
2018-01-30 12:00:00 13.8 26 Nordeste 37 Nordeste 0 -- -- 64
2018-01-30 11:00:00 12 19 Nordeste 28 Nordeste 0 -- -- 71
2018-01-30 10:00:00 10.6 18 Nordeste 26 Nordeste 0 -- -- 79
2018-01-30 09:00:00 8.7 12 Nordeste 21 Nordeste 0 -- -- 87
2018-01-30 08:00:00 8.3 9 Nordeste 18 Nordeste 0 -- -- 88
2018-01-30 07:00:00 8.7 9 Nordeste 13 Nordeste 0 -- -- 90
2018-01-30 06:00:00 9.8 7 Nordeste 26 Nordeste 0 -- -- 84
2018-01-30 05:00:00 10.1 18 Nordeste 26 Nordeste 0 -- -- 86
2018-01-30 04:00:00 10.6 17 Nordeste 26 Nordeste 0 -- -- 85
2018-01-30 03:00:00 10.7 12 Nordeste 23 Nordeste 0 -- -- 84
2018-01-30 02:00:00 10.4 11 Nordeste 18 Nordeste 0.2 -- -- 88
2018-01-30 01:00:00 10.5 10 Nordeste 13 Nordeste 0 -- -- 87
2018-01-30 00:00:00 11.1 6 Nordeste 13 Nordeste 0 -- -- 81
2018-01-29 23:00:00 10.8 9 Nordeste 14 Norte 0 -- -- 78
2018-01-29 22:00:00 10.8 4 Nordeste 14 Este 0 -- -- 77
2018-01-29 21:00:00 11 9 Este 16 Este 0 -- -- 75
2018-01-29 20:00:00 12.7 3 Sur 19 Este 0 -- -- 67
2018-01-29 19:00:00 14.4 16 Nordeste 32 Nordeste 0 -- -- 65
2018-01-29 18:00:00 15.8 14 Nordeste 30 Nordeste 0 -- -- 60
2018-01-29 17:00:00 16.1 21 Nordeste 27 Nordeste 0 -- -- 61
2018-01-29 16:00:00 16.6 9 Este 28 Nordeste 0 -- -- 60
2018-01-29 15:00:00 16 16 Nordeste 41 Nordeste 0 -- -- 58
2018-01-29 14:00:00 14.9 30 Nordeste 45 Nordeste 0 -- -- 59
2018-01-29 13:00:00 13.6 23 Nordeste 44 Nordeste 0 -- -- 63
2018-01-29 12:00:00 13 30 Nordeste 48 Nordeste 0 -- -- 63
2018-01-29 11:00:00 12 32 Nordeste 51 Nordeste 0 -- -- 67
2018-01-29 10:00:00 11.8 29 Nordeste 46 Nordeste 0 -- -- 66
2018-01-29 09:00:00 11.6 29 Nordeste 45 Nordeste 0 -- -- 66
2018-01-29 08:00:00 11.3 27 Nordeste 49 Nordeste 0 -- -- 67
2018-01-29 07:00:00 11.3 27 Nordeste 43 Nordeste 0 -- -- 67
2018-01-29 06:00:00 10.8 31 Nordeste 48 Nordeste 0 -- -- 66
2018-01-29 05:00:00 10.2 22 Nordeste 44 Nordeste 0 -- -- 66
2018-01-29 04:00:00 9.7 23 Nordeste 40 Nordeste 0 -- -- 66
2018-01-29 03:00:00 9.4 16 Nordeste 25 Nordeste 0 -- -- 65
2018-01-29 02:00:00 8.5 15 Nordeste 23 Nordeste 0 -- -- 70
2018-01-29 01:00:00 9 6 Norte 17 Norte 0 -- -- 69
2018-01-29 00:00:00 9.2 14 Nordeste 27 Nordeste 0 -- -- 70
2018-01-28 23:00:00 11.1 21 Nordeste 35 Nordeste 0 -- -- 64
2018-01-28 22:00:00 10.8 15 Nordeste 28 Este 0 -- -- 66
2018-01-28 21:00:00 10.1 16 Nordeste 31 Nordeste 0 -- -- 74
2018-01-28 20:00:00 10.4 13 Nordeste 32 Nordeste 0 -- -- 75
2018-01-28 19:00:00 11.8 19 Este 43 Este 0 -- -- 67
2018-01-28 18:00:00 13.1 17 Este 36 Este 0 -- -- 63
2018-01-28 17:00:00 14.5 18 Nordeste 43 Nordeste 0 -- -- 60
2018-01-28 16:00:00 14.3 25 Nordeste 40 Nordeste 0 -- -- 56
2018-01-28 15:00:00 14.5 24 Nordeste 47 Nordeste 0 -- -- 58
2018-01-28 14:00:00 13.8 25 Nordeste 49 Nordeste 0 -- -- 58
2018-01-28 13:00:00 12 24 Nordeste 46 Nordeste 0 -- -- 65
2018-01-28 12:00:00 9.6 19 Nordeste 35 Nordeste 0 -- -- 66
2018-01-28 11:00:00 6.7 15 Nordeste 23 Nordeste 0 -- -- 78
2018-01-28 10:00:00 4.1 4 Nordeste 10 Nordeste 0 -- -- 91
2018-01-28 09:00:00 1.9 0 Calma 5 Nordeste 0 -- -- 86
2018-01-28 08:00:00 3.5 3 Nordeste 13 Norte 0 -- -- 77
2018-01-28 07:00:00 4.8 6 Norte 15 Norte 0 -- -- 72
2018-01-28 06:00:00 4.5 9 Norte 15 Norte 0 -- -- 74
2018-01-28 05:00:00 3.8 5 Norte 13 Norte 0 -- -- 78
2018-01-28 04:00:00 2.5 0 Calma 15 Nordeste 0 -- -- 81
2018-01-28 03:00:00 4.4 8 Norte 16 Norte 0 -- -- 81
2018-01-28 02:00:00 4.8 10 Nordeste 16 Nordeste 0 -- -- 78
2018-01-28 01:00:00 4.9 8 Nordeste 15 Norte 0 -- -- 80
2018-01-28 00:00:00 4.5 7 Nordeste 10 Nordeste 0 -- -- 80
2018-01-27 23:00:00 6.1 5 Norte 10 Norte 0 -- -- 65
2018-01-27 22:00:00 6.2 3 Norte 15 Nordeste 0 -- -- 72
2018-01-27 21:00:00 6.9 5 Noroeste 11 Norte 0 -- -- 62
2018-01-27 20:00:00 8.8 9 Nordeste 13 Nordeste 0 -- -- 60
2018-01-27 19:00:00 10.7 6 Nordeste 30 Nordeste 0 -- -- 59
2018-01-27 18:00:00 13.8 18 Nordeste 39 Nordeste 0 -- -- 44
2018-01-27 17:00:00 14.9 21 Nordeste 35 Nordeste 0 -- -- 40
2018-01-27 16:00:00 15 17 Nordeste 35 Nordeste 0 -- -- 43
2018-01-27 15:00:00 14.6 16 Nordeste 32 Nordeste 0 -- -- 48
2018-01-27 14:00:00 13.5 15 Nordeste 27 Nordeste 0 -- -- 52
2018-01-27 13:00:00 12.7 14 Nordeste 24 Nordeste 0 -- -- 51
2018-01-27 12:00:00 10.9 13 Nordeste 18 Nordeste 0 -- -- 63
2018-01-27 11:00:00 8.8 6 Nordeste 10 Nordeste 0 -- -- 73
2018-01-27 10:00:00 4.4 4 Nordeste 7 Nordeste 0 -- -- 90
2018-01-27 09:00:00 1.6 4 Norte 9 Noroeste 0 -- -- 92
2018-01-27 08:00:00 0.6 0 Calma 4 Norte 0 -- -- 93
2018-01-27 07:00:00 0.9 0 Calma 4 Norte 0 -- -- 92
2018-01-27 06:00:00 3 3 Noroeste 6 Noroeste 0 -- -- 89
2018-01-27 05:00:00 1.8 3 Oeste 7 Oeste 0 -- -- 89
2018-01-27 04:00:00 3.1 5 Oeste 10 Noroeste 0 -- -- 87
2018-01-27 03:00:00 4.7 7 Noroeste 13 Noroeste 0 -- -- 85
2018-01-27 02:00:00 4.7 8 Noroeste 14 Noroeste 0 -- -- 85
2018-01-27 01:00:00 5.1 8 Noroeste 14 Oeste 0 -- -- 82
2018-01-27 00:00:00 5.5 7 Noroeste 12 Oeste 0 -- -- 80
2018-01-26 23:00:00 6.8 9 Noroeste 14 Noroeste 0 -- -- 74
2018-01-26 22:00:00 7.2 5 Noroeste 13 Noroeste 0 -- -- 71
2018-01-26 21:00:00 8.4 5 Noroeste 15 Norte 0 -- -- 68
2018-01-26 20:00:00 9.8 8 Noroeste 18 Noroeste 0 -- -- 63
2018-01-26 19:00:00 11.7 7 Oeste 17 Noroeste 0 -- -- 58
2018-01-26 18:00:00 14.5 11 Noroeste 26 Noroeste 0 -- -- 48
2018-01-26 17:00:00 15 11 Norte 26 Norte 0 -- -- 46
2018-01-26 16:00:00 14.9 10 Norte 24 Noroeste 0 -- -- 51
2018-01-26 15:00:00 14.1 6 Noroeste 23 Noroeste 0 -- -- 58
2018-01-26 14:00:00 12.7 10 Noroeste 24 Noroeste 0 -- -- 61
2018-01-26 13:00:00 12 7 Noroeste 21 Norte 0 -- -- 67
2018-01-26 12:00:00 10.9 9 Norte 22 Norte 0 -- -- 75
2018-01-26 11:00:00 8.9 12 Noroeste 21 Oeste 0 -- -- 81
2018-01-26 10:00:00 5 0 Calma 5 Sudoeste 0 -- -- 97
2018-01-26 09:00:00 2.9 6 Oeste 12 Oeste 0 -- -- 95
2018-01-26 08:00:00 3 11 Oeste 17 Oeste 0 -- -- 93
2018-01-26 07:00:00 3.5 8 Oeste 14 Noroeste 0 -- -- 93
2018-01-26 06:00:00 3.8 5 Noroeste 12 Oeste 0 -- -- 94
2018-01-26 05:00:00 4.2 6 Oeste 15 Oeste 0 -- -- 91
2018-01-26 04:00:00 4.9 8 Oeste 20 Noroeste 0 -- -- 90
2018-01-26 03:00:00 5.8 9 Noroeste 17 Oeste 0 -- -- 92
2018-01-26 02:00:00 6.2 9 Noroeste 21 Noroeste 0 -- -- 91
2018-01-26 01:00:00 6.6 2 Norte 14 Noroeste 0 -- -- 91
2018-01-26 00:00:00 7.9 8 Oeste 21 Noroeste 0 -- -- 90
2018-01-25 23:00:00 8.5 10 Oeste 19 Oeste 0 -- -- 91
2018-01-25 22:00:00 9.7 9 Oeste 19 Oeste 0 -- -- 93
2018-01-25 21:00:00 9.6 9 Oeste 16 Oeste 0 -- -- 94
2018-01-25 20:00:00 10.8 10 Oeste 15 Oeste 0.2 -- -- 95
2018-01-25 19:00:00 11.5 6 Oeste 24 Noroeste 0.2 -- -- 94
2018-01-25 18:00:00 12.1 10 Noroeste 27 Noroeste 3.4 -- -- 95
2018-01-25 17:00:00 13.2 14 Sudoeste 24 Sudoeste 0.4 -- -- 93
2018-01-25 16:00:00 13.2 8 Sudoeste 20 Oeste 0.2 -- -- 92
2018-01-25 15:00:00 13.9 15 Sudoeste 24 Oeste 0 -- -- 81
2018-01-25 14:00:00 14.6 18 Sudoeste 27 Oeste 0 -- -- 76
2018-01-25 13:00:00 13.8 18 Oeste 23 Oeste 0 -- -- 78
2018-01-25 12:00:00 11.4 10 Oeste 19 Oeste 0 -- -- 87
2018-01-25 11:00:00 10 11 Oeste 18 Oeste 0 -- -- 92
2018-01-25 10:00:00 8.5 8 Oeste 12 Oeste 0 -- -- 96
2018-01-25 09:00:00 8.6 5 Oeste 8 Oeste 0 -- -- 95
2018-01-25 08:00:00 9.7 3 Noroeste 7 Oeste 0 -- -- 97
2018-01-25 07:00:00 10.4 3 Oeste 6 Oeste 0 -- -- 97
2018-01-25 06:00:00 11.1 0 Calma 5 Noroeste 0 -- -- 98
2018-01-25 05:00:00 10.9 2 Sudoeste 4 Sudeste 0 -- -- 98
2018-01-25 04:00:00 10.6 2 Sur 4 Sur 0 -- -- 98
2018-01-25 03:00:00 10.2 4 Sudoeste 6 Sur 0 -- -- 98
2018-01-25 02:00:00 9.9 0 Calma 4 Sudeste 0 -- -- 97
2018-01-25 01:00:00 9.6 2 Sudeste 11 Oeste 0 -- -- 98
2018-01-25 00:00:00 8.6 3 Oeste 5 Oeste 0 -- -- 96
2018-01-24 23:00:00 9 3 Noroeste 10 Oeste 0 -- -- 96
2018-01-24 22:00:00 9 9 Oeste 11 Oeste 0 -- -- 96
2018-01-24 21:00:00 8.5 3 Oeste 6 Noroeste 0 -- -- 92
2018-01-24 20:00:00 10.3 3 Oeste 8 Oeste 0 -- -- 90
2018-01-24 19:00:00 12.7 6 Oeste 12 Oeste 0 -- -- 85
2018-01-24 18:00:00 15.1 8 Oeste 14 Oeste 0 -- -- 78
2018-01-24 17:00:00 16.2 10 Oeste 16 Sudoeste 0 -- -- 74
2018-01-24 16:00:00 17 13 Oeste 18 Sudoeste 0 -- -- 70
2018-01-24 15:00:00 17.6 13 Sudoeste 18 Sudoeste 0 -- -- 69
2018-01-24 14:00:00 17 3 Sudeste 9 Sur 0 -- -- 76
2018-01-24 13:00:00 13.4 3 Noroeste 9 Este 0 -- -- 94
2018-01-24 12:00:00 10.9 4 Nordeste 10 Este 0 -- -- 99
2018-01-24 11:00:00 8.2 8 Nordeste 11 Nordeste 0 -- -- 99
2018-01-24 10:00:00 5.6 5 Nordeste 8 Nordeste 0.2 -- -- 99
2018-01-24 09:00:00 4.8 4 Nordeste 6 Nordeste 0 -- -- 98
2018-01-24 08:00:00 5.1 4 Nordeste 7 Nordeste 0 -- -- 99
2018-01-24 07:00:00 5.1 5 Nordeste 9 Nordeste 0 -- -- 98
2018-01-24 06:00:00 5.1 5 Nordeste 9 Nordeste 0 -- -- 98
2018-01-24 05:00:00 5 2 Norte 9 Norte 0 -- -- 97
2018-01-24 04:00:00 3 3 Nordeste 4 Nordeste 0 -- -- 97
2018-01-24 03:00:00 3.6 0 Calma 6 Norte 0 -- -- 95
2018-01-24 02:00:00 4.6 0 Calma 8 Norte 0 -- -- 94
2018-01-24 01:00:00 5.9 3 Noroeste 12 Noroeste 0 -- -- 95
2018-01-24 00:00:00 6.4 9 Noroeste 13 Noroeste 0 -- -- 95
2018-01-23 23:00:00 7.2 6 Noroeste 9 Noroeste 0 -- -- 95
2018-01-23 22:00:00 8.4 5 Noroeste 9 Noroeste 0 -- -- 95
2018-01-23 21:00:00 8.5 5 Oeste 7 Oeste 0 -- -- 93
2018-01-23 20:00:00 9.7 6 Oeste 10 Sudoeste 0 -- -- 91
2018-01-23 19:00:00 11.8 9 Sudoeste 15 Oeste 0 -- -- 84
2018-01-23 18:00:00 15.2 10 Oeste 18 Oeste 0 -- -- 69
2018-01-23 17:00:00 16.2 13 Oeste 18 Sudoeste 0 -- -- 69
2018-01-23 16:00:00 17.5 12 Sudoeste 17 Sudoeste 0 -- -- 65
2018-01-23 15:00:00 17.9 12 Oeste 16 Sudoeste 0 -- -- 63
2018-01-23 14:00:00 16.3 5 Nordeste 13 Nordeste 0 -- -- 65
2018-01-23 13:00:00 14.6 8 Nordeste 13 Nordeste 0 -- -- 72
2018-01-23 12:00:00 12.6 5 Nordeste 12 Nordeste 0 -- -- 79
2018-01-23 11:00:00 10.2 6 Nordeste 12 Nordeste 0 -- -- 95
2018-01-23 10:00:00 7.3 3 Norte 12 Norte 0 -- -- 99
2018-01-23 09:00:00 4.6 7 Noroeste 11 Noroeste 0 -- -- 99
2018-01-23 08:00:00 5.3 6 Norte 9 Noroeste 0 -- -- 98
2018-01-23 07:00:00 5.4 4 Norte 10 Norte 0.2 -- -- 98
2018-01-23 06:00:00 5.4 3 Norte 10 Norte 0 -- -- 98
2018-01-23 05:00:00 5.9 3 Norte 10 Norte 0 -- -- 98
2018-01-23 04:00:00 5.9 6 Norte 14 Norte 0 -- -- 98
2018-01-23 03:00:00 6.3 6 Norte 11 Nordeste 0 -- -- 98
2018-01-23 02:00:00 6.4 3 Norte 10 Noroeste 0 -- -- 96
2018-01-23 01:00:00 6.6 3 Norte 10 Norte 0 -- -- 94
2018-01-23 00:00:00 7.2 4 Noroeste 9 Norte 0 -- -- 96
2018-01-22 23:00:00 7.8 2 Noroeste 9 Noroeste 0 -- -- 92
2018-01-22 22:00:00 9.2 6 Noroeste 10 Noroeste 0 -- -- 94
2018-01-22 21:00:00 8.7 4 Oeste 8 Noroeste 0 -- -- 93
2018-01-22 20:00:00 10.2 5 Oeste 9 Oeste 0 -- -- 89
2018-01-22 19:00:00 12.5 8 Oeste 17 Oeste 0 -- -- 85
2018-01-22 18:00:00 15.5 13 Oeste 20 Oeste 0 -- -- 76
2018-01-22 17:00:00 17.1 15 Oeste 21 Oeste 0 -- -- 69
2018-01-22 16:00:00 17 16 Oeste 24 Sudoeste 0 -- -- 70
2018-01-22 15:00:00 18.5 13 Sudoeste 17 Sudoeste 0 -- -- 66
2018-01-22 14:00:00 16.6 3 Norte 15 Nordeste 0 -- -- 69
2018-01-22 13:00:00 14.9 6 Nordeste 16 Nordeste 0 -- -- 75
2018-01-22 12:00:00 12.7 10 Nordeste 17 Nordeste 0 -- -- 85
2018-01-22 11:00:00 10 5 Norte 12 Nordeste 0 -- -- 99
2018-01-22 10:00:00 7.5 5 Noroeste 10 Norte 0 -- -- 99
2018-01-22 09:00:00 5 2 Norte 10 Noroeste 0 -- -- 97
2018-01-22 08:00:00 4.6 5 Noroeste 8 Noroeste 0 -- -- 99
2018-01-22 07:00:00 3.2 3 Sudoeste 8 Noroeste 0 -- -- 96
2018-01-22 06:00:00 2.8 4 Noroeste 6 Noroeste 0 -- -- 97
2018-01-22 05:00:00 4.7 0 Calma 4 Noroeste 0 -- -- 96
2018-01-22 04:00:00 6.5 2 Oeste 9 Noroeste 0 -- -- 97
2018-01-22 03:00:00 6.8 5 Norte 9 Norte 0 -- -- 98
2018-01-22 02:00:00 7.3 5 Norte 12 Norte 0 -- -- 97
2018-01-22 01:00:00 7.7 4 Norte 7 Norte 0 -- -- 96
2018-01-22 00:00:00 7.2 0 Calma 6 Noroeste 0 -- -- 94